createdAt,value
2022-09-12T00:00:52.218Z,25.07
2022-09-12T00:03:18.750Z,25.60
2022-09-12T00:05:47.082Z,25.43
2022-09-12T00:08:14.453Z,26.90
2022-09-12T00:10:42.862Z,26.93
2022-09-12T00:13:10.103Z,22.40
2022-09-12T00:15:44.268Z,26.27
2022-09-12T00:18:15.922Z,22.70
2022-09-12T00:20:47.078Z,25.13
2022-09-12T00:23:14.655Z,23.23
2022-09-12T00:25:45.971Z,27.03
2022-09-12T00:28:14.295Z,26.20
2022-09-12T00:30:43.168Z,27.30
2022-09-12T00:33:10.886Z,26.60
2022-09-12T00:35:53.011Z,24.60
2022-09-12T00:38:21.347Z,25.73
2022-09-12T00:40:48.796Z,24.80
2022-09-12T00:43:33.996Z,23.00
2022-09-12T00:46:13.647Z,24.33
2022-09-12T00:48:46.213Z,25.03
2022-09-12T00:51:14.244Z,24.00
2022-09-12T00:53:44.472Z,25.27
2022-09-12T00:56:13.545Z,26.60
2022-09-12T00:58:45.270Z,24.10
2022-09-12T01:01:12.075Z,24.97
2022-09-12T01:03:38.848Z,25.77
2022-09-12T01:06:05.374Z,27.13
2022-09-12T01:08:34.099Z,24.53
2022-09-12T01:11:01.176Z,27.13
2022-09-12T01:13:28.727Z,25.13
2022-09-12T01:15:56.259Z,30.43
2022-09-12T01:18:32.258Z,27.47
2022-09-12T01:21:20.648Z,26.37
2022-09-12T01:24:22.870Z,26.50
2022-09-12T01:27:20.291Z,26.70
2022-09-12T01:30:02.242Z,25.80
2022-09-12T01:32:54.499Z,24.97
2022-09-12T01:35:33.088Z,27.70
2022-09-12T01:38:11.889Z,30.83
2022-09-12T01:40:58.350Z,25.43
2022-09-12T01:43:45.560Z,27.03
2022-09-12T01:46:24.971Z,27.97
2022-09-12T01:49:07.214Z,29.30
2022-09-12T01:51:45.151Z,26.93
2022-09-12T01:54:22.915Z,30.17
2022-09-12T01:56:53.515Z,30.37
2022-09-12T01:59:29.892Z,27.43
2022-09-12T02:02:15.254Z,30.00
2022-09-12T02:04:52.151Z,26.40
2022-09-12T02:07:24.136Z,28.50
2022-09-12T02:10:18.047Z,25.97
2022-09-12T02:13:00.258Z,22.27
2022-09-12T02:15:38.008Z,26.23
2022-09-12T02:18:06.662Z,28.03
2022-09-12T02:20:48.096Z,22.93
2022-09-12T02:23:26.597Z,29.37
2022-09-12T02:25:58.073Z,28.20
2022-09-12T02:28:38.251Z,26.10
2022-09-12T02:31:23.181Z,22.17
2022-09-12T02:34:31.471Z,23.93
2022-09-12T02:37:06.057Z,21.07
2022-09-12T02:39:33.434Z,25.83
2022-09-12T02:42:03.968Z,23.90
2022-09-12T02:44:33.559Z,26.77
2022-09-12T02:47:24.168Z,25.90
2022-09-12T02:49:51.435Z,27.97
2022-09-12T02:52:18.176Z,23.90
2022-09-12T02:54:45.506Z,23.50
2022-09-12T02:57:22.800Z,23.43
2022-09-12T02:59:52.820Z,23.17
2022-09-12T03:02:28.619Z,22.40
2022-09-12T03:05:11.815Z,23.80
2022-09-12T03:07:53.494Z,26.07
2022-09-12T03:10:37.414Z,24.97
2022-09-12T03:13:03.951Z,23.43
2022-09-12T03:16:12.149Z,23.87
2022-09-12T03:18:55.793Z,24.93
2022-09-12T03:21:37.260Z,22.13
2022-09-12T03:24:16.152Z,23.60
2022-09-12T03:26:57.840Z,21.20
2022-09-12T03:29:25.532Z,23.77
2022-09-12T03:31:55.287Z,20.67
2022-09-12T03:34:23.530Z,21.13
2022-09-12T03:36:50.573Z,22.20
2022-09-12T03:39:17.298Z,29.40
2022-09-12T03:41:44.190Z,20.53
2022-09-12T03:44:10.919Z,23.60
2022-09-12T03:46:37.609Z,20.57
2022-09-12T03:49:04.207Z,24.40
2022-09-12T03:51:31.094Z,20.90
2022-09-12T03:53:57.667Z,20.57
2022-09-12T03:56:24.635Z,22.53
2022-09-12T03:58:51.162Z,23.97
2022-09-12T04:01:19.817Z,21.47
2022-09-12T04:03:49.195Z,21.50
2022-09-12T04:06:18.360Z,17.93
2022-09-12T04:08:48.807Z,20.80
2022-09-12T04:11:15.959Z,20.10
2022-09-12T04:13:44.652Z,21.40
2022-09-12T04:16:12.149Z,18.13
2022-09-12T04:18:38.930Z,21.87
2022-09-12T04:21:07.663Z,20.90
2022-09-12T04:23:35.065Z,24.07
2022-09-12T04:26:04.067Z,21.43
2022-09-12T04:28:30.629Z,22.37
2022-09-12T04:31:03.364Z,20.97
2022-09-12T04:33:29.935Z,22.53
2022-09-12T04:35:56.623Z,18.00
2022-09-12T04:38:23.344Z,20.93
2022-09-12T04:40:49.788Z,22.07
2022-09-12T04:43:16.704Z,20.03
2022-09-12T04:45:43.182Z,21.30
2022-09-12T04:48:09.953Z,22.47
2022-09-12T04:50:36.635Z,19.67
2022-09-12T04:53:03.201Z,20.07
2022-09-12T04:55:30.219Z,18.30
2022-09-12T04:57:56.726Z,19.77
2022-09-12T05:00:23.234Z,23.13
2022-09-12T05:02:49.746Z,21.37
2022-09-12T05:05:17.543Z,22.90
2022-09-12T05:07:44.016Z,21.10
2022-09-12T05:10:10.595Z,20.23
2022-09-12T05:12:37.067Z,19.87
2022-09-12T05:15:04.728Z,17.63
2022-09-12T05:17:31.188Z,18.90
2022-09-12T05:19:57.872Z,20.23
2022-09-12T05:22:24.355Z,23.80
2022-09-12T05:24:50.907Z,18.67
2022-09-12T05:27:17.708Z,23.87
2022-09-12T05:29:44.219Z,18.73
2022-09-12T05:32:12.686Z,17.03
2022-09-12T05:34:40.207Z,20.57
2022-09-12T05:37:06.749Z,16.30
2022-09-12T05:39:33.211Z,16.23
2022-09-12T05:42:00.700Z,18.33
2022-09-12T05:44:28.220Z,17.40
2022-09-12T05:46:54.734Z,16.20
2022-09-12T05:49:21.608Z,15.80
2022-09-12T05:51:48.114Z,16.03
2022-09-12T05:54:18.236Z,17.77
2022-09-12T05:56:45.659Z,23.33
2022-09-12T05:59:17.715Z,17.13
2022-09-12T06:01:44.974Z,18.43
2022-09-12T06:04:12.229Z,18.07
2022-09-12T06:06:47.299Z,17.50
2022-09-12T06:09:16.077Z,17.53
2022-09-12T06:11:43.602Z,17.67
2022-09-12T06:14:14.842Z,14.83
2022-09-12T06:16:41.497Z,15.10
2022-09-12T06:19:14.260Z,17.40
2022-09-12T06:21:40.792Z,16.03
2022-09-12T06:24:09.900Z,14.77
2022-09-12T06:26:37.150Z,14.87
2022-09-12T06:29:04.909Z,15.90
2022-09-12T06:31:36.435Z,13.63
2022-09-12T06:34:05.817Z,14.30
2022-09-12T06:36:36.804Z,16.00
2022-09-12T06:39:10.241Z,18.13
2022-09-12T06:41:40.474Z,16.87
2022-09-12T06:44:14.403Z,16.20
2022-09-12T06:46:41.298Z,13.57
2022-09-12T06:49:08.210Z,13.93
2022-09-12T06:51:36.351Z,16.60
2022-09-12T06:54:03.838Z,12.03
2022-09-12T06:56:30.764Z,14.00
2022-09-12T06:58:58.978Z,12.90
2022-09-12T07:01:31.193Z,15.03
2022-09-12T07:04:00.209Z,11.80
2022-09-12T07:06:32.272Z,11.77
2022-09-12T07:09:01.030Z,12.87
2022-09-12T07:11:31.738Z,14.70
2022-09-12T07:14:01.763Z,11.27
2022-09-12T07:16:29.216Z,11.70
2022-09-12T07:18:59.372Z,11.93
2022-09-12T07:21:27.230Z,12.30
2022-09-12T07:23:57.236Z,13.70
2022-09-12T07:26:25.284Z,13.57
2022-09-12T07:29:07.884Z,10.70
2022-09-12T07:31:42.870Z,10.47
2022-09-12T07:34:09.928Z,13.17
2022-09-12T07:36:36.567Z,13.80
2022-09-12T07:39:03.867Z,15.00
2022-09-12T07:41:33.858Z,14.90
2022-09-12T07:44:02.528Z,10.10
2022-09-12T07:46:30.680Z,13.07
2022-09-12T07:48:59.292Z,9.73
2022-09-12T07:51:27.400Z,10.00
2022-09-12T07:53:54.320Z,12.73
2022-09-12T07:56:22.580Z,10.03
2022-09-12T07:58:50.771Z,10.60
2022-09-12T08:01:19.586Z,12.23
2022-09-12T08:03:48.819Z,10.30
2022-09-12T08:06:20.520Z,9.93
2022-09-12T08:08:48.458Z,13.00
2022-09-12T08:11:17.287Z,12.33
2022-09-12T08:13:45.648Z,11.63
2022-09-12T08:16:21.175Z,10.90
2022-09-12T08:18:48.827Z,10.23
2022-09-12T08:21:29.594Z,12.53
2022-09-12T08:24:01.997Z,12.33
2022-09-12T08:26:29.112Z,12.50
2022-09-12T08:28:55.755Z,11.17
2022-09-12T08:31:25.010Z,12.83
2022-09-12T08:33:51.999Z,12.20
2022-09-12T08:36:24.475Z,10.03
2022-09-12T08:38:59.335Z,14.57
2022-09-12T08:41:39.847Z,13.03
2022-09-12T08:44:43.082Z,12.33
2022-09-12T08:47:28.412Z,10.17
2022-09-12T08:50:01.032Z,10.27
2022-09-12T08:53:11.707Z,12.47
2022-09-12T08:55:38.211Z,9.93
2022-09-12T08:58:14.920Z,10.50
2022-09-12T09:01:20.137Z,9.20
2022-09-12T09:04:05.819Z,10.53
2022-09-12T09:06:54.119Z,13.47
2022-09-12T09:09:20.577Z,9.47
2022-09-12T09:12:12.382Z,10.03
2022-09-12T09:15:03.414Z,9.53
2022-09-12T09:17:44.933Z,11.60
2022-09-12T09:20:23.306Z,9.00
2022-09-12T09:22:54.886Z,10.27
2022-09-12T09:25:25.315Z,8.93
2022-09-12T09:27:58.966Z,11.23
2022-09-12T09:30:25.485Z,9.83
2022-09-12T09:32:59.674Z,10.20
2022-09-12T09:35:41.160Z,10.27
2022-09-12T09:38:32.857Z,11.37
2022-09-12T09:41:11.984Z,11.63
2022-09-12T09:43:39.725Z,9.97
2022-09-12T09:46:07.076Z,11.17
2022-09-12T09:48:37.834Z,10.07
2022-09-12T09:51:07.202Z,10.83
2022-09-12T09:53:46.755Z,12.40
2022-09-12T09:56:34.354Z,8.17
2022-09-12T09:59:12.948Z,7.57
2022-09-12T10:02:14.789Z,8.80
2022-09-12T10:04:55.014Z,10.73
2022-09-12T10:07:22.258Z,8.17
2022-09-12T10:10:05.165Z,7.70
2022-09-12T10:12:31.772Z,9.97
2022-09-12T10:15:03.722Z,8.97
2022-09-12T10:17:43.764Z,7.73
2022-09-12T10:20:32.330Z,9.47
2022-09-12T10:23:37.966Z,7.50
2022-09-12T10:26:10.859Z,7.60
2022-09-12T10:28:42.143Z,5.30
2022-09-12T10:31:14.218Z,8.80
2022-09-12T10:33:54.045Z,10.37
2022-09-12T10:36:21.188Z,5.53
2022-09-12T10:39:01.374Z,9.03
2022-09-12T10:41:37.420Z,6.17
2022-09-12T10:44:17.057Z,7.00
2022-09-12T10:46:44.302Z,5.47
2022-09-12T10:49:21.612Z,7.80
2022-09-12T10:51:48.960Z,5.13
2022-09-12T10:54:18.543Z,5.20
2022-09-12T10:56:57.438Z,4.30
2022-09-12T10:59:27.050Z,8.73
2022-09-12T11:02:26.028Z,10.30
2022-09-12T11:05:22.724Z,6.70
2022-09-12T11:08:03.929Z,4.53
2022-09-12T11:10:42.553Z,6.33
2022-09-12T11:13:25.738Z,3.90
2022-09-12T11:16:01.227Z,4.73
2022-09-12T11:18:52.428Z,7.87
2022-09-12T11:21:45.501Z,5.20
2022-09-12T11:24:21.056Z,6.30
2022-09-12T11:27:29.612Z,4.33
2022-09-12T11:30:06.919Z,4.73
2022-09-12T11:32:55.738Z,4.47
2022-09-12T11:35:30.541Z,4.43
2022-09-12T11:38:31.576Z,4.43
2022-09-12T11:41:06.580Z,4.77
2022-09-12T11:43:38.600Z,6.37
2022-09-12T11:46:34.369Z,5.03
2022-09-12T11:49:09.638Z,4.50
2022-09-12T11:51:43.265Z,5.50
2022-09-12T11:54:19.070Z,4.63
2022-09-12T11:56:47.457Z,5.73
2022-09-12T11:59:50.032Z,4.17
2022-09-12T12:02:27.817Z,4.33
2022-09-12T12:05:23.771Z,3.63
2022-09-12T12:08:00.089Z,3.80
2022-09-12T12:10:36.193Z,2.80
2022-09-12T12:13:16.057Z,3.93
2022-09-12T12:15:52.942Z,4.70
2022-09-12T12:18:24.466Z,4.77
2022-09-12T12:20:52.120Z,6.30
2022-09-12T12:23:24.818Z,5.47
2022-09-12T12:25:55.113Z,3.30
2022-09-12T12:28:50.372Z,4.67
2022-09-12T12:31:18.360Z,3.47
2022-09-12T12:33:44.893Z,3.53
2022-09-12T12:36:34.210Z,3.63
2022-09-12T12:39:48.297Z,5.47
2022-09-12T12:42:36.041Z,2.60
2022-09-12T12:45:08.977Z,2.17
2022-09-12T12:47:38.433Z,2.67
2022-09-12T12:50:16.191Z,6.07
2022-09-12T12:52:50.622Z,2.57
2022-09-12T12:55:26.554Z,3.33
2022-09-12T12:57:55.998Z,3.13
2022-09-12T13:00:25.661Z,2.90
2022-09-12T13:03:07.242Z,2.13
2022-09-12T13:05:46.286Z,4.07
2022-09-12T13:08:18.773Z,4.27
2022-09-12T13:10:54.757Z,4.03
2022-09-12T13:13:32.256Z,2.80
2022-09-12T13:15:58.813Z,3.07
2022-09-12T13:18:34.197Z,4.70
2022-09-12T13:21:12.643Z,3.57
2022-09-12T13:23:39.516Z,3.00
2022-09-12T13:26:21.034Z,2.57
2022-09-12T13:28:47.849Z,3.37
2022-09-12T13:31:26.763Z,2.70
2022-09-12T13:34:04.790Z,4.50
2022-09-12T13:36:50.402Z,2.87
2022-09-12T13:39:29.939Z,3.30
2022-09-12T13:42:15.116Z,4.07
2022-09-12T13:44:55.268Z,3.37
2022-09-12T13:47:34.833Z,3.20
2022-09-12T13:50:03.907Z,3.33
2022-09-12T13:52:33.616Z,3.13
2022-09-12T13:55:02.090Z,3.17
2022-09-12T13:57:33.599Z,3.83
2022-09-12T14:00:03.169Z,3.37
2022-09-12T14:02:31.352Z,3.60
2022-09-12T14:05:10.500Z,3.00
2022-09-12T14:07:44.145Z,3.77
2022-09-12T14:10:18.425Z,2.73
2022-09-12T14:12:50.770Z,3.27
2022-09-12T14:15:23.704Z,5.20
2022-09-12T14:17:52.776Z,2.57
2022-09-12T14:20:23.199Z,3.63
2022-09-12T14:22:53.170Z,3.00
2022-09-12T14:25:23.682Z,2.63
2022-09-12T14:27:55.591Z,5.40
2022-09-12T14:30:31.965Z,5.93
2022-09-12T14:33:10.288Z,3.10
2022-09-12T14:35:48.626Z,4.30
2022-09-12T14:38:24.641Z,7.30
2022-09-12T14:40:59.787Z,3.20
2022-09-12T14:43:36.045Z,7.57
2022-09-12T14:46:06.245Z,3.20
2022-09-12T14:48:43.340Z,3.43
2022-09-12T14:51:21.328Z,2.60
2022-09-12T14:53:49.978Z,3.00
2022-09-12T14:56:17.084Z,3.53
2022-09-12T14:58:43.859Z,3.23
2022-09-12T15:01:10.346Z,3.67
2022-09-12T15:03:57.676Z,3.17
2022-09-12T15:06:36.253Z,2.97
2022-09-12T15:09:07.020Z,3.17
2022-09-12T15:11:33.886Z,3.90
2022-09-12T15:14:08.366Z,2.93
2022-09-12T15:16:34.837Z,4.20
2022-09-12T15:19:01.382Z,4.07
2022-09-12T15:21:28.378Z,3.57
2022-09-12T15:23:55.313Z,5.00
2022-09-12T15:26:27.208Z,2.67
2022-09-12T15:28:55.157Z,4.43
2022-09-12T15:31:24.708Z,3.47
2022-09-12T15:33:51.513Z,5.00
2022-09-12T15:36:20.747Z,2.83
2022-09-12T15:38:48.259Z,4.50
2022-09-12T15:41:28.181Z,2.73
2022-09-12T15:43:54.747Z,2.87
2022-09-12T15:46:21.772Z,3.10
2022-09-12T15:48:48.389Z,2.83
2022-09-12T15:51:20.272Z,2.80
2022-09-12T15:53:48.387Z,4.27
2022-09-12T15:56:17.082Z,2.80
2022-09-12T15:58:57.820Z,3.30
2022-09-12T16:01:26.343Z,4.23
2022-09-12T16:03:52.949Z,2.70
2022-09-12T16:06:19.768Z,3.83
2022-09-12T16:08:46.280Z,3.47
2022-09-12T16:11:24.418Z,2.53
2022-09-12T16:13:55.021Z,4.20
2022-09-12T16:16:22.073Z,3.20
2022-09-12T16:18:49.210Z,4.63
2022-09-12T16:21:16.133Z,3.07
2022-09-12T16:23:44.427Z,3.57
2022-09-12T16:26:11.205Z,2.97
2022-09-12T16:28:38.225Z,4.80
2022-09-12T16:31:07.031Z,3.70
2022-09-12T16:33:34.413Z,3.40
2022-09-12T16:36:04.067Z,7.43
2022-09-12T16:38:31.556Z,4.73
2022-09-12T16:41:06.311Z,6.03
2022-09-12T16:43:34.806Z,3.20
2022-09-12T16:46:26.202Z,2.97
2022-09-12T16:48:54.570Z,3.17
2022-09-12T16:51:27.674Z,2.57
2022-09-12T16:53:55.347Z,2.80
2022-09-12T16:56:22.806Z,3.10
2022-09-12T16:58:49.710Z,2.60
2022-09-12T17:01:22.677Z,2.43
2022-09-12T17:03:53.408Z,3.40
2022-09-12T17:06:20.668Z,3.17
2022-09-12T17:08:49.980Z,3.50
2022-09-12T17:11:22.423Z,3.03
2022-09-12T17:14:09.946Z,3.00
2022-09-12T17:16:42.760Z,4.43
2022-09-12T17:19:16.607Z,3.07
2022-09-12T17:21:44.426Z,3.27
2022-09-12T17:24:11.197Z,3.93
2022-09-12T17:26:37.946Z,5.70
2022-09-12T17:29:05.402Z,3.20
2022-09-12T17:31:32.683Z,3.10
2022-09-12T17:34:00.832Z,5.40
2022-09-12T17:36:28.334Z,3.57
2022-09-12T17:38:55.557Z,3.53
2022-09-12T17:41:25.557Z,4.83
2022-09-12T17:43:56.297Z,3.60
2022-09-12T17:46:25.400Z,4.03
2022-09-12T17:48:56.902Z,5.40
2022-09-12T17:51:25.166Z,4.40
2022-09-12T17:54:06.886Z,4.63
2022-09-12T17:56:34.907Z,5.23
2022-09-12T17:59:02.018Z,6.97
2022-09-12T18:01:48.372Z,3.60
2022-09-12T18:04:15.917Z,3.60
2022-09-12T18:06:47.999Z,4.43
2022-09-12T18:09:18.125Z,3.90
2022-09-12T18:11:45.035Z,4.77
2022-09-12T18:14:14.245Z,5.07
2022-09-12T18:16:41.991Z,5.23
2022-09-12T18:19:08.832Z,5.47
2022-09-12T18:21:35.368Z,4.83
2022-09-12T18:24:03.108Z,3.87
2022-09-12T18:26:31.022Z,5.03
2022-09-12T18:28:57.926Z,3.90
2022-09-12T18:31:27.639Z,4.87
2022-09-12T18:33:54.602Z,4.83
2022-09-12T18:36:21.751Z,6.13
2022-09-12T18:38:49.118Z,6.60
2022-09-12T18:41:21.684Z,5.60
2022-09-12T18:43:49.396Z,4.67
2022-09-12T18:46:19.047Z,5.10
2022-09-12T18:48:46.860Z,5.27
2022-09-12T18:51:17.957Z,6.00
2022-09-12T18:53:53.049Z,4.23
2022-09-12T18:56:20.657Z,5.90
2022-09-12T18:58:52.340Z,3.77
2022-09-12T19:01:31.288Z,3.87
2022-09-12T19:03:58.169Z,4.70
2022-09-12T19:06:30.587Z,5.07
2022-09-12T19:09:00.197Z,7.23
2022-09-12T19:11:29.603Z,4.47
2022-09-12T19:13:56.803Z,4.67
2022-09-12T19:16:25.742Z,9.17
2022-09-12T19:18:53.365Z,6.43
2022-09-12T19:21:22.556Z,6.70
2022-09-12T19:23:49.782Z,3.83
2022-09-12T19:26:17.951Z,7.27
2022-09-12T19:28:45.351Z,4.57
2022-09-12T19:31:14.737Z,5.47
2022-09-12T19:33:42.044Z,4.80
2022-09-12T19:36:33.604Z,4.73
2022-09-12T19:38:59.281Z,5.20
2022-09-12T19:41:26.239Z,5.60
2022-09-12T19:43:52.703Z,5.33
2022-09-12T19:46:21.523Z,7.77
2022-09-12T19:48:48.663Z,6.10
2022-09-12T19:51:16.478Z,5.23
2022-09-12T19:53:43.416Z,5.27
2022-09-12T19:56:11.930Z,5.63
2022-09-12T19:58:44.435Z,6.97
2022-09-12T20:01:19.927Z,7.07
2022-09-12T20:03:46.957Z,5.47
2022-09-12T20:06:17.700Z,7.23
2022-09-12T20:08:44.777Z,6.03
2022-09-12T20:11:14.022Z,5.80
2022-09-12T20:13:41.290Z,5.53
2022-09-12T20:16:21.357Z,5.40
2022-09-12T20:18:52.326Z,7.43
2022-09-12T20:21:20.987Z,5.10
2022-09-12T20:23:47.696Z,6.67
2022-09-12T20:26:14.329Z,5.00
2022-09-12T20:28:41.902Z,5.57
2022-09-12T20:31:14.447Z,6.30
2022-09-12T20:33:41.111Z,5.73
2022-09-12T20:36:13.885Z,5.63
2022-09-12T20:38:41.924Z,4.70
2022-09-12T20:41:10.077Z,6.17
2022-09-12T20:43:38.703Z,4.27
2022-09-12T20:46:12.626Z,5.03
2022-09-12T20:48:39.479Z,6.30
2022-09-12T20:51:07.380Z,5.60
2022-09-12T20:53:35.372Z,4.60
2022-09-12T20:56:03.162Z,4.97
2022-09-12T20:58:29.723Z,5.10
2022-09-12T21:00:56.725Z,4.53
2022-09-12T21:03:23.254Z,4.40
2022-09-12T21:05:49.723Z,4.90
2022-09-12T21:08:16.635Z,4.27
2022-09-12T21:10:44.427Z,3.90
2022-09-12T21:13:12.383Z,3.90
2022-09-12T21:15:39.996Z,4.60
2022-09-12T21:18:06.972Z,4.10
2022-09-12T21:20:34.258Z,4.37
2022-09-12T21:23:00.796Z,5.30
2022-09-12T21:25:29.149Z,3.73
2022-09-12T21:27:55.816Z,5.50
2022-09-12T21:30:22.449Z,4.53
2022-09-12T21:32:49.099Z,4.13
2022-09-12T21:35:15.760Z,6.07
2022-09-12T21:37:42.259Z,3.97
2022-09-12T21:40:09.094Z,5.23
2022-09-12T21:42:35.678Z,4.47
2022-09-12T21:45:02.403Z,6.77
2022-09-12T21:47:29.170Z,4.27
2022-09-12T21:49:55.742Z,5.03
2022-09-12T21:52:22.367Z,5.80
2022-09-12T21:54:48.927Z,3.63
2022-09-12T21:57:15.769Z,3.57
2022-09-12T21:59:42.447Z,5.00
2022-09-12T22:02:10.865Z,5.53
2022-09-12T22:04:37.758Z,4.67
2022-09-12T22:07:05.513Z,9.53
2022-09-12T22:09:32.907Z,3.53
2022-09-12T22:11:59.398Z,3.50
2022-09-12T22:14:26.885Z,4.53
2022-09-12T22:16:53.390Z,4.37
2022-09-12T22:19:20.362Z,3.70
2022-09-12T22:22:05.809Z,3.57
2022-09-12T22:24:32.355Z,3.50
2022-09-12T22:27:01.729Z,4.83
2022-09-12T22:29:28.654Z,4.97
2022-09-12T22:31:55.566Z,6.37
2022-09-12T22:34:22.213Z,3.47
2022-09-12T22:36:49.334Z,4.97
2022-09-12T22:39:16.049Z,3.87
2022-09-12T22:41:42.540Z,3.53
2022-09-12T22:44:10.932Z,5.07
2022-09-12T22:46:38.054Z,3.30
2022-09-12T22:49:06.470Z,4.03
2022-09-12T22:51:33.911Z,7.63
2022-09-12T22:54:00.454Z,3.83
2022-09-12T22:56:27.385Z,4.03
2022-09-12T22:58:54.312Z,3.77
2022-09-12T23:01:20.960Z,7.27
2022-09-12T23:03:47.573Z,4.50
2022-09-12T23:06:14.237Z,3.57
2022-09-12T23:08:40.768Z,3.87
2022-09-12T23:11:10.328Z,3.50
2022-09-12T23:13:37.914Z,5.57
2022-09-12T23:16:06.290Z,4.67
2022-09-12T23:18:36.791Z,5.40
2022-09-12T23:21:06.655Z,4.10
2022-09-12T23:23:34.044Z,4.13
2022-09-12T23:26:11.904Z,6.83
2022-09-12T23:28:40.441Z,5.80
2022-09-12T23:31:09.755Z,5.47
2022-09-12T23:33:36.915Z,5.13
2022-09-12T23:36:11.449Z,4.80
2022-09-12T23:38:38.562Z,5.23
2022-09-12T23:41:05.196Z,4.77
2022-09-12T23:43:31.865Z,3.77
2022-09-12T23:46:00.751Z,5.10
2022-09-12T23:48:28.090Z,5.27
2022-09-12T23:50:54.681Z,5.87
2022-09-12T23:53:21.979Z,4.80
2022-09-12T23:55:49.228Z,8.53
2022-09-12T23:58:16.750Z,5.33
